F/V La Roumasse — FHUV — position and weather

sailwx.info

Track history (hours):
 
Tides and Currents Weather Stations Pressure Air Temp Water Temp Dewpoint Dewpoint Depression Visibility Wind Speed Wind Dir Waves Ship Positions

F/V La Roumasse

Last reported at 2017-Nov-23 04:05 UTC. Time now 2017-Nov-24 15:07 UTC.
Position N 46°42' W 001°57'.

Length 17 m; draft 3.3 m.

Type: Fishing. MMSI: 227123700.

Date/timePositionNaut miles runAvg speedWind from/ knotsBaromVisibWave heightAir tempDewpointWater temp
2017-Nov-23 04:05N 46°42' W 001°57'1 6.5
2017-Nov-23 04:00N 46°41' W 001°57'4 7.7
2017-Nov-23 03:30N 46°39' W 002°01'5 7.9
2017-Nov-23 02:54N 46°35' W 002°06'3 8.0
2017-Nov-23 02:30N 46°32' W 002°09'  
2017-Nov-19 04:01N 46°40' W 001°59'0 8.5
2017-Nov-19 04:00N 46°40' W 001°59'2 0.0
2017-Nov-17 03:06N 46°42' W 001°57'1 5.8
2017-Nov-17 02:59N 46°41' W 001°57'5 8.4
2017-Nov-17 02:25N 46°39' W 002°03'4 8.4
2017-Nov-17 02:00N 46°36' W 002°07'4 8.5
2017-Nov-17 01:28N 46°34' W 002°12'4 8.5
2017-Nov-17 01:00N 46°31' W 002°17'4 8.5
2017-Nov-17 00:30N 46°28' W 002°22'13 0.7
2017-Nov-16 04:51N 46°34' W 002°05'3 8.8
2017-Nov-16 04:30N 46°37' W 002°02'5 8.7
2017-Nov-16 03:59N 46°40' W 001°58'2 3.3
2017-Nov-16 03:25N 46°42' W 001°56'4 6.8
2017-Nov-16 02:53N 46°39' W 002°00'3 8.6
2017-Nov-16 02:30N 46°37' W 002°03'5 8.6
2017-Nov-16 01:58N 46°33' W 002°08'3 0.2
2017-Nov-15 05:22N 46°30' W 002°09'4 9.0
2017-Nov-15 04:56N 46°33' W 002°06'4 8.9
2017-Nov-15 04:30N 46°36' W 002°03'4 8.7
2017-Nov-15 04:00N 46°40' W 001°59'3 3.4
2017-Nov-15 03:12N 46°42' W 001°56'1 6.0
2017-Nov-15 02:58N 46°41' W 001°58'4 8.7
2017-Nov-15 02:30N 46°38' W 002°02'4 8.7
2017-Nov-15 02:00N 46°34' W 002°06'5 8.5
2017-Nov-15 01:28N 46°31' W 002°10'4 7.5
2017-Nov-15 00:58N 46°28' W 002°13'3 0.2
2017-Nov-14 05:34N 46°30' W 002°10'1 9.1
2017-Nov-14 05:29N 46°30' W 002°09'5 9.0
2017-Nov-14 04:55N 46°34' W 002°05'4 8.9
2017-Nov-14 04:30N 46°37' W 002°02'4 8.7
2017-Nov-14 04:00N 46°41' W 001°58'1 1.5
2017-Nov-14 03:11N 46°42' W 001°56'1 5.4
2017-Nov-14 03:00N 46°41' W 001°58'4 8.5
2017-Nov-14 02:30N 46°38' W 002°01'4 8.4
2017-Nov-14 02:00N 46°34' W 002°05'  
Track history (hours):
 
Tides and Currents Weather Stations Pressure Air Temp Water Temp Dewpoint Dewpoint Depression Visibility Wind Speed Wind Dir Waves Ship Positions

F/V La Roumasse

Last reported at 2017-Nov-23 04:05 UTC. Time now 2017-Nov-24 15:07 UTC.
Position N 46°42' W 001°57'.

Length 17 m; draft 3.3 m.

Type: Fishing. MMSI: 227123700.

Date/timePositionNaut miles runAvg speedWind from/ knotsBaromVisibWave heightAir tempDewpointWater temp
2017-Nov-23 04:05N 46°42' W 001°57'1 6.5
2017-Nov-23 04:00N 46°41' W 001°57'4 7.7
2017-Nov-23 03:30N 46°39' W 002°01'5 7.9
2017-Nov-23 02:54N 46°35' W 002°06'3 8.0
2017-Nov-23 02:30N 46°32' W 002°09'  
2017-Nov-19 04:01N 46°40' W 001°59'0 8.5
2017-Nov-19 04:00N 46°40' W 001°59'2 0.0
2017-Nov-17 03:06N 46°42' W 001°57'1 5.8
2017-Nov-17 02:59N 46°41' W 001°57'5 8.4
2017-Nov-17 02:25N 46°39' W 002°03'4 8.4
2017-Nov-17 02:00N 46°36' W 002°07'4 8.5
2017-Nov-17 01:28N 46°34' W 002°12'4 8.5
2017-Nov-17 01:00N 46°31' W 002°17'4 8.5
2017-Nov-17 00:30N 46°28' W 002°22'13 0.7
2017-Nov-16 04:51N 46°34' W 002°05'3 8.8
2017-Nov-16 04:30N 46°37' W 002°02'5 8.7
2017-Nov-16 03:59N 46°40' W 001°58'2 3.3
2017-Nov-16 03:25N 46°42' W 001°56'4 6.8
2017-Nov-16 02:53N 46°39' W 002°00'3 8.6
2017-Nov-16 02:30N 46°37' W 002°03'5 8.6
2017-Nov-16 01:58N 46°33' W 002°08'3 0.2
2017-Nov-15 05:22N 46°30' W 002°09'4 9.0
2017-Nov-15 04:56N 46°33' W 002°06'4 8.9
2017-Nov-15 04:30N 46°36' W 002°03'4 8.7
2017-Nov-15 04:00N 46°40' W 001°59'3 3.4
2017-Nov-15 03:12N 46°42' W 001°56'1 6.0
2017-Nov-15 02:58N 46°41' W 001°58'4 8.7
2017-Nov-15 02:30N 46°38' W 002°02'4 8.7
2017-Nov-15 02:00N 46°34' W 002°06'5 8.5
2017-Nov-15 01:28N 46°31' W 002°10'4 7.5
2017-Nov-15 00:58N 46°28' W 002°13'3 0.2
2017-Nov-14 05:34N 46°30' W 002°10'1 9.1
2017-Nov-14 05:29N 46°30' W 002°09'5 9.0
2017-Nov-14 04:55N 46°34' W 002°05'4 8.9
2017-Nov-14 04:30N 46°37' W 002°02'4 8.7
2017-Nov-14 04:00N 46°41' W 001°58'1 1.5
2017-Nov-14 03:11N 46°42' W 001°56'1 5.4
2017-Nov-14 03:00N 46°41' W 001°58'4 8.5
2017-Nov-14 02:30N 46°38' W 002°01'4 8.4
2017-Nov-14 02:00N 46°34' W 002°05'  

Dump ship's entire track history